Time;durP1;ratioP1;P1;durP2;ratioP2;P2;SDS_P1;SDS_P2;PMS_P1;PMS_P2;Temp;Humidity;BMP_temperature;BMP_pressure;BME280_temperature;BME280_humidity;BME280_pressure;Samples;Min_cycle;Max_cycle;Signal;HPM_P1;HPM_P2
2021/06/25 00:02:07;;;;;;;5.10;1.63;;;;;;;;;;5031139;28;20467;-80
2021/06/25 00:04:34;;;;;;;5.90;1.67;;;;;;;;;;5015035;28;20038;-81
2021/06/25 00:07:00;;;;;;;5.80;1.27;;;;;;;;;;5003991;28;20033;-82
2021/06/25 00:09:26;;;;;;;5.43;2.03;;;;;;;;;;4995599;28;20046;-81
2021/06/25 00:11:52;;;;;;;3.90;1.48;;;;;;;;;;5013545;28;20927;-81
2021/06/25 00:14:22;;;;;;;7.95;2.15;;;;;;;;;;4983666;28;20045;-80
2021/06/25 00:16:49;;;;;;;8.43;2.25;;;;;;;;;;4996539;28;20051;-81
2021/06/25 00:19:15;;;;;;;5.32;1.92;;;;;;;;;;4969380;28;20036;-81
2021/06/25 00:21:42;;;;;;;6.32;1.77;;;;;;;;;;4998115;28;20029;-81
2021/06/25 00:24:08;;;;;;;6.00;1.77;;;;;;;;;;4996197;28;20068;-81
2021/06/25 00:26:34;;;;;;;5.68;1.40;;;;;;;;;;5004903;28;20094;-81
2021/06/25 00:29:00;;;;;;;6.55;1.50;;;;;;;;;;4999100;28;20121;-80
2021/06/25 00:31:28;;;;;;;7.47;1.65;;;;;;;;;;4991237;28;20052;-80
2021/06/25 00:33:54;;;;;;;5.07;1.45;;;;;;;;;;5026994;28;20106;-80
2021/06/25 00:36:21;;;;;;;10.07;1.48;;;;;;;;;;5023576;28;20072;-81
2021/06/25 00:38:50;;;;;;;7.68;1.60;;;;;;;;;;5016608;28;20057;-82
2021/06/25 00:41:16;;;;;;;9.25;1.48;;;;;;;;;;5018112;28;20051;-81
2021/06/25 00:43:42;;;;;;;5.90;1.60;;;;;;;;;;5017814;28;20481;-82
2021/06/25 00:46:08;;;;;;;5.57;1.80;;;;;;;;;;4984911;28;20033;-82
2021/06/25 00:48:34;;;;;;;5.43;1.50;;;;;;;;;;5005157;28;20041;-81
2021/06/25 00:51:00;;;;;;;9.43;2.00;;;;;;;;;;5007976;28;20043;-81
2021/06/25 00:53:28;;;;;;;4.80;1.20;;;;;;;;;;5015328;28;20065;-81
2021/06/25 00:55:55;;;;;;;3.70;1.20;;;;;;;;;;4986985;28;20030;-81
2021/06/25 00:58:21;;;;;;;5.03;1.58;;;;;;;;;;5030795;28;20047;-81
2021/06/25 01:00:47;;;;;;;6.65;1.95;;;;;;;;;;5005861;28;20112;-82
2021/06/25 01:03:14;;;;;;;12.48;3.20;;;;;;;;;;5003090;28;20111;-82
2021/06/25 01:05:40;;;;;;;11.90;3.15;;;;;;;;;;5009533;28;20044;-82
2021/06/25 01:08:07;;;;;;;12.95;3.17;;;;;;;;;;5010673;28;20115;-82
2021/06/25 01:10:37;;;;;;;9.82;2.65;;;;;;;;;;5021412;28;20117;-82
2021/06/25 01:13:05;;;;;;;13.27;3.17;;;;;;;;;;5009631;28;20391;-82
2021/06/25 01:15:31;;;;;;;7.55;2.72;;;;;;;;;;5013882;28;20789;-82
2021/06/25 01:17:57;;;;;;;9.63;3.53;;;;;;;;;;5012110;28;20034;-82
2021/06/25 01:20:27;;;;;;;7.25;3.58;;;;;;;;;;5016992;28;20510;-80
2021/06/25 01:22:53;;;;;;;11.00;7.80;;;;;;;;;;4984993;28;20475;-80
2021/06/25 01:25:22;;;;;;;9.10;5.43;;;;;;;;;;5020639;28;20037;-82
2021/06/25 01:27:49;;;;;;;8.88;4.10;;;;;;;;;;5023377;28;20031;-82
2021/06/25 01:30:16;;;;;;;15.45;4.38;;;;;;;;;;5007027;28;20125;-82
2021/06/25 01:32:43;;;;;;;7.95;4.78;;;;;;;;;;4978035;28;20463;-82
2021/06/25 01:35:10;;;;;;;8.82;4.75;;;;;;;;;;5016194;28;20045;-82
2021/06/25 01:37:36;;;;;;;6.45;4.25;;;;;;;;;;5018060;28;20545;-82
2021/06/25 01:40:03;;;;;;;10.38;4.30;;;;;;;;;;5014822;28;20120;-83
2021/06/25 01:42:31;;;;;;;6.93;4.00;;;;;;;;;;5002975;28;20046;-83
2021/06/25 01:44:57;;;;;;;10.40;5.82;;;;;;;;;;4995637;28;20033;-82
2021/06/25 01:47:23;;;;;;;10.90;5.63;;;;;;;;;;5009308;28;20479;-82
2021/06/25 01:49:52;;;;;;;6.70;3.90;;;;;;;;;;4977220;28;20624;-83
2021/06/25 01:52:18;;;;;;;6.47;3.08;;;;;;;;;;5001856;28;20058;-83
2021/06/25 01:54:45;;;;;;;8.73;2.55;;;;;;;;;;4998926;28;20041;-81
2021/06/25 01:57:13;;;;;;;5.30;2.05;;;;;;;;;;4997819;28;20034;-81
2021/06/25 01:59:39;;;;;;;5.57;1.80;;;;;;;;;;5003893;28;20045;-81
2021/06/25 02:02:05;;;;;;;4.53;2.10;;;;;;;;;;5009102;28;20025;-81
2021/06/25 02:04:31;;;;;;;5.45;1.73;;;;;;;;;;4983252;28;20492;-79
2021/06/25 02:06:57;;;;;;;3.95;1.40;;;;;;;;;;5008426;28;20045;-82
2021/06/25 02:09:23;;;;;;;5.85;2.47;;;;;;;;;;4998578;28;20160;-83
2021/06/25 02:11:49;;;;;;;7.07;3.80;;;;;;;;;;4979884;28;20038;-82
2021/06/25 02:14:15;;;;;;;4.72;2.90;;;;;;;;;;4993225;28;20061;-82
2021/06/25 02:16:41;;;;;;;3.65;2.00;;;;;;;;;;4986986;28;20509;-81
2021/06/25 02:19:07;;;;;;;4.28;2.45;;;;;;;;;;5025153;28;20085;-82
2021/06/25 02:21:33;;;;;;;3.25;1.48;;;;;;;;;;5004041;28;20039;-81
2021/06/25 02:24:00;;;;;;;4.03;1.70;;;;;;;;;;5016721;28;20041;-81
2021/06/25 02:26:26;;;;;;;5.15;2.50;;;;;;;;;;5006635;28;20146;-82
2021/06/25 02:28:52;;;;;;;2.70;1.50;;;;;;;;;;5008086;28;20049;-82
2021/06/25 02:31:21;;;;;;;3.25;1.52;;;;;;;;;;4993239;28;20522;-80
2021/06/25 02:33:47;;;;;;;6.15;2.53;;;;;;;;;;5001590;28;20124;-82
2021/06/25 02:36:16;;;;;;;3.47;1.98;;;;;;;;;;4986996;28;20121;-82
2021/06/25 02:38:42;;;;;;;3.50;2.58;;;;;;;;;;5007484;28;20052;-80
2021/06/25 02:41:08;;;;;;;2.58;1.92;;;;;;;;;;4978571;28;20419;-82
2021/06/25 02:43:34;;;;;;;4.68;2.63;;;;;;;;;;4999786;28;20045;-82
2021/06/25 02:46:00;;;;;;;2.95;1.10;;;;;;;;;;5010441;28;20735;-82
2021/06/25 02:48:26;;;;;;;4.05;1.90;;;;;;;;;;4992789;28;20046;-80
2021/06/25 02:50:53;;;;;;;1.98;0.90;;;;;;;;;;4966841;28;20065;-81
2021/06/25 02:53:22;;;;;;;4.28;1.70;;;;;;;;;;4978129;28;20031;-81
2021/06/25 02:55:52;;;;;;;3.35;0.93;;;;;;;;;;4931348;28;20095;-82
2021/06/25 02:58:22;;;;;;;1.98;0.88;;;;;;;;;;4963601;28;20086;-82
2021/06/25 03:00:52;;;;;;;1.77;1.05;;;;;;;;;;4917254;28;20529;-82
2021/06/25 03:03:19;;;;;;;1.95;0.93;;;;;;;;;;4993412;28;20063;-82
2021/06/25 03:05:45;;;;;;;2.00;0.63;;;;;;;;;;4990446;28;20116;-81
2021/06/25 03:08:14;;;;;;;1.98;1.45;;;;;;;;;;4997526;28;20093;-81
2021/06/25 03:10:42;;;;;;;2.53;1.25;;;;;;;;;;4929502;28;20170;-79
2021/06/25 03:13:09;;;;;;;2.08;0.55;;;;;;;;;;4943527;28;20041;-81
2021/06/25 03:15:35;;;;;;;0.80;0.70;;;;;;;;;;4920979;28;20523;-82
2021/06/25 03:18:01;;;;;;;2.58;1.17;;;;;;;;;;4994673;28;20527;-82
2021/06/25 03:20:31;;;;;;;2.72;0.60;;;;;;;;;;4984259;28;20039;-82
2021/06/25 03:22:57;;;;;;;3.95;0.60;;;;;;;;;;4992150;28;20084;-83
2021/06/25 03:25:23;;;;;;;2.42;1.00;;;;;;;;;;4998996;28;20385;-83
2021/06/25 03:27:50;;;;;;;2.58;0.90;;;;;;;;;;4992954;28;20057;-82
2021/06/25 03:30:16;;;;;;;3.13;1.08;;;;;;;;;;5011710;28;20048;-81
2021/06/25 03:32:43;;;;;;;3.53;1.38;;;;;;;;;;4947793;28;20089;-82
2021/06/25 03:35:09;;;;;;;4.93;2.13;;;;;;;;;;4968314;28;20062;-82
2021/06/25 03:37:37;;;;;;;3.78;1.58;;;;;;;;;;5017945;28;20515;-81
2021/06/25 03:40:08;;;;;;;3.45;0.88;;;;;;;;;;4972850;28;20067;-81
2021/06/25 03:42:38;;;;;;;1.98;0.57;;;;;;;;;;4993731;28;20101;-82
2021/06/25 03:45:08;;;;;;;1.13;0.82;;;;;;;;;;4992189;28;20045;-81
2021/06/25 03:47:43;;;;;;;1.40;0.60;;;;;;;;;;4984709;28;20051;-81
2021/06/25 03:50:10;;;;;;;1.05;0.70;;;;;;;;;;4995272;28;20119;-81
2021/06/25 03:52:36;;;;;;;1.98;0.85;;;;;;;;;;4993618;28;20088;-80
2021/06/25 03:55:02;;;;;;;2.55;0.90;;;;;;;;;;4987029;28;20124;-80
2021/06/25 03:57:32;;;;;;;1.20;0.70;;;;;;;;;;4997062;28;20492;-82
2021/06/25 03:59:58;;;;;;;2.90;0.95;;;;;;;;;;4988664;28;20038;-82
2021/06/25 04:02:24;;;;;;;2.20;0.68;;;;;;;;;;4979339;28;20033;-82
2021/06/25 04:04:51;;;;;;;1.17;0.63;;;;;;;;;;4961929;28;20044;-81
2021/06/25 04:07:46;;;;;;;2.50;1.00;;;;;;;;;;4955500;28;20043;-83
2021/06/25 04:10:15;;;;;;;1.88;0.80;;;;;;;;;;4965607;28;20049;-82
2021/06/25 04:12:41;;;;;;;1.88;0.80;;;;;;;;;;5012213;28;20108;-81
2021/06/25 04:15:08;;;;;;;2.15;0.80;;;;;;;;;;5018810;28;20034;-82
2021/06/25 04:17:34;;;;;;;2.70;0.70;;;;;;;;;;4992714;28;20096;-82
2021/06/25 04:20:00;;;;;;;3.40;0.90;;;;;;;;;;4982585;28;20041;-81
2021/06/25 04:22:27;;;;;;;2.22;0.70;;;;;;;;;;5002737;28;20100;-81
2021/06/25 04:24:53;;;;;;;0.98;0.60;;;;;;;;;;4985696;28;20029;-81
2021/06/25 04:27:19;;;;;;;0.73;0.50;;;;;;;;;;5021821;28;20048;-81
2021/06/25 04:29:46;;;;;;;0.95;0.70;;;;;;;;;;5007627;28;20050;-82
2021/06/25 04:32:15;;;;;;;2.45;0.60;;;;;;;;;;5000755;28;20533;-82
2021/06/25 04:34:41;;;;;;;0.85;0.57;;;;;;;;;;4983737;28;20073;-81
2021/06/25 04:37:12;;;;;;;0.88;0.47;;;;;;;;;;4961945;28;20065;-83
2021/06/25 04:39:39;;;;;;;0.70;0.52;;;;;;;;;;4978593;28;20041;-80
2021/06/25 04:42:05;;;;;;;1.65;0.60;;;;;;;;;;4985790;28;20038;-80
2021/06/25 04:44:31;;;;;;;1.27;0.40;;;;;;;;;;4989665;28;20048;-81
2021/06/25 04:46:57;;;;;;;3.38;0.90;;;;;;;;;;4987904;28;20480;-81
2021/06/25 04:49:23;;;;;;;2.08;0.52;;;;;;;;;;4982504;28;20057;-81
2021/06/25 04:51:49;;;;;;;0.77;0.47;;;;;;;;;;5023908;28;20436;-80
2021/06/25 04:54:15;;;;;;;1.90;0.57;;;;;;;;;;5018924;28;20055;-81
2021/06/25 04:56:41;;;;;;;0.75;0.50;;;;;;;;;;5024984;28;20155;-81
2021/06/25 04:59:07;;;;;;;0.82;0.50;;;;;;;;;;5019413;28;20034;-80
2021/06/25 05:01:33;;;;;;;0.90;0.57;;;;;;;;;;5008760;28;20034;-81
2021/06/25 05:03:59;;;;;;;2.75;0.50;;;;;;;;;;4996253;28;20049;-80
2021/06/25 05:06:25;;;;;;;1.20;0.45;;;;;;;;;;4974268;28;20086;-81
2021/06/25 05:08:51;;;;;;;1.45;0.70;;;;;;;;;;5015917;28;20064;-80
2021/06/25 05:11:17;;;;;;;0.80;0.50;;;;;;;;;;5032425;28;20037;-81
2021/06/25 05:13:43;;;;;;;0.75;0.47;;;;;;;;;;5005331;28;20116;-82
2021/06/25 05:16:09;;;;;;;1.13;0.65;;;;;;;;;;5018599;28;20045;-81
2021/06/25 05:18:35;;;;;;;3.92;0.65;;;;;;;;;;5023439;28;20175;-81
2021/06/25 05:21:01;;;;;;;1.23;0.90;;;;;;;;;;5027832;28;20493;-81
2021/06/25 05:23:27;;;;;;;2.10;0.40;;;;;;;;;;5007220;28;20033;-81
2021/06/25 05:25:56;;;;;;;0.40;0.40;;;;;;;;;;5024781;28;20080;-81
2021/06/25 05:28:22;;;;;;;0.55;0.40;;;;;;;;;;5024187;28;20057;-81
2021/06/25 05:30:48;;;;;;;0.60;0.30;;;;;;;;;;5007134;28;20040;-81
2021/06/25 05:33:14;;;;;;;1.50;0.70;;;;;;;;;;4997771;28;20041;-81
2021/06/25 05:35:40;;;;;;;0.80;0.57;;;;;;;;;;4947389;28;20060;-81
2021/06/25 05:38:10;;;;;;;1.63;0.60;;;;;;;;;;4982587;28;20041;-82
2021/06/25 05:40:37;;;;;;;0.50;0.50;;;;;;;;;;5002171;28;20136;-82
2021/06/25 05:43:06;;;;;;;0.68;0.50;;;;;;;;;;5011616;28;20037;-82
2021/06/25 05:45:32;;;;;;;1.58;0.60;;;;;;;;;;5003270;28;20038;-81
2021/06/25 05:47:58;;;;;;;1.50;0.77;;;;;;;;;;5024221;28;20049;-81
2021/06/25 05:50:24;;;;;;;0.57;0.50;;;;;;;;;;5023991;28;20029;-81
2021/06/25 05:52:50;;;;;;;0.50;0.50;;;;;;;;;;4983499;28;20042;-80
2021/06/25 05:55:16;;;;;;;6.75;0.60;;;;;;;;;;5002466;28;20381;-80
2021/06/25 05:57:43;;;;;;;1.27;0.60;;;;;;;;;;5003402;28;20524;-81
2021/06/25 06:00:09;;;;;;;1.63;0.70;;;;;;;;;;5009101;28;20045;-80
2021/06/25 06:02:36;;;;;;;1.27;0.60;;;;;;;;;;5022737;28;20034;-81
2021/06/25 06:05:02;;;;;;;2.35;0.63;;;;;;;;;;5023698;28;20496;-81
2021/06/25 06:07:28;;;;;;;0.70;0.40;;;;;;;;;;5015774;28;20034;-81
2021/06/25 06:09:54;;;;;;;1.55;0.50;;;;;;;;;;5004765;28;20153;-82
2021/06/25 06:12:20;;;;;;;1.30;0.50;;;;;;;;;;5003303;28;20033;-81
2021/06/25 06:14:47;;;;;;;1.23;0.73;;;;;;;;;;5013521;28;20103;-81
2021/06/25 06:17:13;;;;;;;0.50;0.47;;;;;;;;;;5025970;28;20208;-81
2021/06/25 06:19:41;;;;;;;1.13;0.50;;;;;;;;;;5023427;28;20120;-81
2021/06/25 06:33:10;;;;;;;1.50;0.50;;;;;;;;;;5002295;28;20039;-82
2021/06/25 06:35:37;;;;;;;1.60;0.80;;;;;;;;;;5024020;28;20044;-82
2021/06/25 06:38:04;;;;;;;0.80;0.63;;;;;;;;;;5026850;28;20041;-82
2021/06/25 06:40:31;;;;;;;2.83;0.80;;;;;;;;;;5006609;28;20034;-82
2021/06/25 06:42:57;;;;;;;0.90;0.60;;;;;;;;;;4992674;28;20117;-82
2021/06/25 06:45:23;;;;;;;1.50;0.52;;;;;;;;;;5006005;28;20457;-82
2021/06/25 06:47:49;;;;;;;1.25;0.73;;;;;;;;;;5001091;28;20394;-82
2021/06/25 06:50:16;;;;;;;0.90;0.70;;;;;;;;;;5002542;28;20038;-82
2021/06/25 06:52:47;;;;;;;1.00;0.60;;;;;;;;;;4995946;28;20045;-82
2021/06/25 06:55:14;;;;;;;1.90;0.68;;;;;;;;;;5028681;28;20053;-82
2021/06/25 06:57:40;;;;;;;0.55;0.40;;;;;;;;;;5022187;28;20030;-82
2021/06/25 07:00:06;;;;;;;0.45;0.40;;;;;;;;;;5010993;28;20037;-83
2021/06/25 07:02:33;;;;;;;2.90;0.65;;;;;;;;;;5026293;28;20495;-82
2021/06/25 07:04:59;;;;;;;2.10;0.40;;;;;;;;;;5042045;28;20460;-82
2021/06/25 07:07:25;;;;;;;3.90;0.65;;;;;;;;;;5042102;28;20078;-82
2021/06/25 07:09:51;;;;;;;0.73;0.60;;;;;;;;;;5039332;28;20045;-83
2021/06/25 07:12:17;;;;;;;0.47;0.47;;;;;;;;;;5021098;28;20076;-83
2021/06/25 07:14:43;;;;;;;0.52;0.50;;;;;;;;;;4997157;28;20557;-82
2021/06/25 07:17:09;;;;;;;1.75;0.60;;;;;;;;;;5002539;28;20034;-82
2021/06/25 07:19:35;;;;;;;1.98;0.50;;;;;;;;;;5000981;28;20109;-83
2021/06/25 07:22:01;;;;;;;1.65;0.57;;;;;;;;;;5015768;28;20056;-81
2021/06/25 07:24:27;;;;;;;1.65;0.65;;;;;;;;;;5003731;28;20442;-82
2021/06/25 07:26:53;;;;;;;0.98;0.52;;;;;;;;;;5021529;28;20045;-82
2021/06/25 07:29:19;;;;;;;1.13;0.60;;;;;;;;;;5022174;28;20052;-81
2021/06/25 07:31:45;;;;;;;1.10;0.68;;;;;;;;;;5030986;28;20041;-82
2021/06/25 07:34:12;;;;;;;1.95;0.57;;;;;;;;;;5006294;28;20403;-82
2021/06/25 07:36:38;;;;;;;0.80;0.40;;;;;;;;;;5021026;28;20045;-83
2021/06/25 07:39:07;;;;;;;0.50;0.40;;;;;;;;;;5021298;28;20042;-81
2021/06/25 07:41:33;;;;;;;1.27;0.50;;;;;;;;;;5020169;28;20080;-81
2021/06/25 07:43:59;;;;;;;0.95;0.60;;;;;;;;;;5005405;28;20420;-82
2021/06/25 07:46:25;;;;;;;1.58;0.52;;;;;;;;;;5022633;28;20030;-82
2021/06/25 07:48:51;;;;;;;1.05;0.50;;;;;;;;;;5021231;28;20041;-81
2021/06/25 07:51:17;;;;;;;2.60;0.60;;;;;;;;;;5012638;28;20034;-82
2021/06/25 07:53:43;;;;;;;0.65;0.57;;;;;;;;;;5001376;28;20058;-81
2021/06/25 07:56:09;;;;;;;0.77;0.40;;;;;;;;;;5001215;28;20096;-82
2021/06/25 07:58:36;;;;;;;1.08;0.80;;;;;;;;;;5000934;28;20042;-82
2021/06/25 08:01:02;;;;;;;0.68;0.65;;;;;;;;;;5007308;28;20061;-81
2021/06/25 08:03:28;;;;;;;0.75;0.63;;;;;;;;;;4995926;28;20115;-81
2021/06/25 08:05:54;;;;;;;1.13;0.60;;;;;;;;;;5012393;28;20041;-81
2021/06/25 08:08:20;;;;;;;1.38;0.73;;;;;;;;;;5014729;28;20088;-82
2021/06/25 08:10:46;;;;;;;5.20;1.17;;;;;;;;;;5009879;28;20030;-81
2021/06/25 08:13:12;;;;;;;1.25;0.65;;;;;;;;;;5006442;28;20042;-82
2021/06/25 08:15:38;;;;;;;1.42;0.98;;;;;;;;;;5012699;28;20112;-82
2021/06/25 08:18:05;;;;;;;2.30;0.90;;;;;;;;;;5004703;28;20496;-82
2021/06/25 08:20:31;;;;;;;2.92;1.38;;;;;;;;;;5019403;28;20038;-82
2021/06/25 08:22:57;;;;;;;1.58;1.00;;;;;;;;;;5026261;28;20026;-81
2021/06/25 08:25:24;;;;;;;3.38;1.05;;;;;;;;;;5022470;28;20092;-81
2021/06/25 08:27:50;;;;;;;2.40;1.00;;;;;;;;;;4991111;28;20216;-81
2021/06/25 08:30:17;;;;;;;2.50;1.10;;;;;;;;;;5014554;28;20145;-82
2021/06/25 08:32:44;;;;;;;2.70;1.17;;;;;;;;;;5027290;28;20045;-81
2021/06/25 08:35:10;;;;;;;1.92;1.10;;;;;;;;;;5029343;28;20090;-82
2021/06/25 08:37:36;;;;;;;2.30;1.00;;;;;;;;;;5026365;28;20381;-81
2021/06/25 08:40:04;;;;;;;1.13;0.80;;;;;;;;;;5025447;28;20057;-83
2021/06/25 08:42:30;;;;;;;1.27;1.00;;;;;;;;;;5036450;28;20485;-81
2021/06/25 08:44:58;;;;;;;2.95;0.95;;;;;;;;;;5011274;28;20423;-82
2021/06/25 08:47:27;;;;;;;2.22;1.15;;;;;;;;;;4994788;28;20034;-81
2021/06/25 08:49:53;;;;;;;1.20;0.90;;;;;;;;;;4994170;28;20129;-82
2021/06/25 08:52:19;;;;;;;3.53;1.13;;;;;;;;;;5003812;28;20483;-82
2021/06/25 08:54:46;;;;;;;3.40;1.10;;;;;;;;;;5023837;28;20462;-82
2021/06/25 08:57:12;;;;;;;1.63;0.95;;;;;;;;;;5024416;28;20060;-82
2021/06/25 08:59:38;;;;;;;3.90;1.20;;;;;;;;;;5024516;28;20034;-82
2021/06/25 09:02:04;;;;;;;3.75;0.90;;;;;;;;;;5005309;28;20037;-82
2021/06/25 09:04:36;;;;;;;1.48;0.90;;;;;;;;;;5004952;28;20034;-81
2021/06/25 09:07:03;;;;;;;2.00;1.00;;;;;;;;;;5003917;28;20048;-83
2021/06/25 09:09:39;;;;;;;4.43;1.10;;;;;;;;;;5005149;28;20052;-82
2021/06/25 09:12:09;;;;;;;3.50;1.30;;;;;;;;;;5042256;28;20372;-83
2021/06/25 09:14:54;;;;;;;2.88;1.23;;;;;;;;;;5044015;28;20487;-82
2021/06/25 09:17:23;;;;;;;2.00;1.30;;;;;;;;;;5040697;28;20506;-82
2021/06/25 09:19:49;;;;;;;2.63;1.42;;;;;;;;;;5027693;28;20033;-82
2021/06/25 09:22:16;;;;;;;3.30;1.30;;;;;;;;;;5045797;28;20029;-82
2021/06/25 09:24:42;;;;;;;1.80;0.93;;;;;;;;;;5043725;28;20040;-82
2021/06/25 09:27:09;;;;;;;1.88;1.17;;;;;;;;;;5044672;28;20564;-82
2021/06/25 09:29:37;;;;;;;1.73;1.02;;;;;;;;;;5033256;28;20053;-83
2021/06/25 09:32:11;;;;;;;4.15;1.30;;;;;;;;;;5034990;28;20092;-81
2021/06/25 09:34:38;;;;;;;3.90;1.23;;;;;;;;;;5023118;28;20551;-80
2021/06/25 09:37:04;;;;;;;4.35;1.25;;;;;;;;;;5006004;28;20041;-82
2021/06/25 09:39:30;;;;;;;4.45;1.40;;;;;;;;;;5022032;28;20094;-81
2021/06/25 09:41:56;;;;;;;3.92;1.30;;;;;;;;;;5033674;28;20086;-82
2021/06/25 09:44:25;;;;;;;1.85;1.17;;;;;;;;;;5021999;28;20029;-81
2021/06/25 09:46:52;;;;;;;2.88;1.52;;;;;;;;;;4993996;28;20041;-82
2021/06/25 09:49:30;;;;;;;4.57;1.40;;;;;;;;;;5037226;28;20041;-82
2021/06/25 09:51:57;;;;;;;2.38;1.35;;;;;;;;;;4973499;28;20050;-80
2021/06/25 09:54:24;;;;;;;2.08;1.30;;;;;;;;;;5008581;28;20040;-82
2021/06/25 09:57:07;;;;;;;3.13;1.10;;;;;;;;;;5002537;28;20044;-81
2021/06/25 10:02:20;;;;;;;2.42;1.30;;;;;;;;;;4996417;28;20471;-82
2021/06/25 10:04:49;;;;;;;3.50;1.52;;;;;;;;;;4976017;28;20037;-89
2021/06/25 10:07:14;;;;;;;;;;;;;;;;;;5007849;28;20572;-88
2021/06/25 10:09:42;;;;;;;3.65;1.70;;;;;;;;;;4970468;28;19996;-90
2021/06/25 10:12:10;;;;;;;5.18;1.80;;;;;;;;;;4996994;28;20038;-88
2021/06/25 10:14:36;;;;;;;4.97;1.50;;;;;;;;;;4993929;28;20080;-89
2021/06/25 10:17:05;;;;;;;5.53;1.67;;;;;;;;;;4991988;28;20064;-86
2021/06/25 10:19:31;;;;;;;3.88;1.50;;;;;;;;;;4990402;28;20061;-90
2021/06/25 10:22:03;;;;;;;4.25;1.90;;;;;;;;;;4999873;28;20026;-91
2021/06/25 10:24:31;;;;;;;4.63;1.92;;;;;;;;;;4992418;28;20423;-86
2021/06/25 10:26:57;;;;;;;3.67;1.83;;;;;;;;;;4999668;28;20034;-86
2021/06/25 10:29:24;;;;;;;5.63;1.90;;;;;;;;;;5009867;28;20057;-87
2021/06/25 10:31:51;;;;;;;2.67;1.65;;;;;;;;;;5009668;28;20063;-85
2021/06/25 10:34:17;;;;;;;4.15;1.95;;;;;;;;;;4965680;28;20037;-86
2021/06/25 10:36:48;;;;;;;5.63;2.08;;;;;;;;;;5024431;28;20044;-87
2021/06/25 10:39:14;;;;;;;4.65;1.98;;;;;;;;;;5023834;28;20435;-87
2021/06/25 10:41:57;;;;;;;5.93;2.08;;;;;;;;;;5019664;28;20037;-92
2021/06/25 10:44:46;;;;;;;4.53;2.35;;;;;;;;;;5000526;28;20035;-86
2021/06/25 10:47:20;;;;;;;4.30;2.60;;;;;;;;;;4983294;28;20045;-90
2021/06/25 10:50:01;;;;;;;11.63;4.25;;;;;;;;;;5024237;28;20069;-85
2021/06/25 10:52:27;;;;;;;8.27;3.15;;;;;;;;;;5015380;28;20087;-88
2021/06/25 10:55:04;;;;;;;9.70;2.88;;;;;;;;;;5013571;28;20037;-86
2021/06/25 10:57:31;;;;;;;6.13;2.58;;;;;;;;;;5020830;28;20034;-86
2021/06/25 10:59:58;;;;;;;4.80;2.13;;;;;;;;;;5016536;28;20120;-84
2021/06/25 11:02:51;;;;;;;5.03;2.58;;;;;;;;;;4999491;28;20034;-89
2021/06/25 11:05:27;;;;;;;5.47;3.00;;;;;;;;;;4978375;28;20117;-88
2021/06/25 11:07:53;;;;;;;6.40;2.97;;;;;;;;;;4997602;28;20538;-86
2021/06/25 11:10:23;;;;;;;8.93;3.35;;;;;;;;;;5000829;28;20053;-88
2021/06/25 11:12:51;;;;;;;6.13;3.28;;;;;;;;;;4976573;28;20034;-88
2021/06/25 11:15:26;;;;;;;13.98;4.68;;;;;;;;;;5001833;28;20034;-92
2021/06/25 11:17:53;;;;;;;7.25;3.85;;;;;;;;;;5002398;28;20034;-88
2021/06/25 11:20:21;;;;;;;9.05;4.75;;;;;;;;;;4985464;28;20104;-92
2021/06/25 11:23:02;;;;;;;8.13;4.35;;;;;;;;;;4998265;28;20061;-88
2021/06/25 11:25:34;;;;;;;7.90;4.60;;;;;;;;;;5000409;28;20045;-88
2021/06/25 11:28:09;;;;;;;5.63;3.83;;;;;;;;;;5009857;28;20052;-85
2021/06/25 11:30:51;;;;;;;8.35;3.92;;;;;;;;;;4984221;28;20105;-85
2021/06/25 11:33:35;;;;;;;8.75;4.03;;;;;;;;;;4986201;28;20092;-84
2021/06/25 11:36:27;;;;;;;6.53;3.47;;;;;;;;;;5020046;28;20052;-86
2021/06/25 11:38:57;;;;;;;7.68;3.13;;;;;;;;;;4993660;28;20125;-86
2021/06/25 11:41:46;;;;;;;9.90;4.22;;;;;;;;;;5022545;28;20029;-85
2021/06/25 11:44:13;;;;;;;5.20;3.20;;;;;;;;;;4954595;28;20064;-89
2021/06/25 11:47:02;;;;;;;6.15;2.70;;;;;;;;;;5002147;28;20037;-87
2021/06/25 11:49:37;;;;;;;5.47;2.67;;;;;;;;;;4992759;28;20050;-87
2021/06/25 11:52:08;;;;;;;5.07;2.75;;;;;;;;;;4953567;28;20095;-86
2021/06/25 11:54:36;;;;;;;5.35;2.92;;;;;;;;;;5029906;28;20091;-86
2021/06/25 11:57:06;;;;;;;7.68;2.92;;;;;;;;;;4992480;28;20047;-88
2021/06/25 11:59:32;;;;;;;8.05;3.30;;;;;;;;;;4991938;28;20510;-87
2021/06/25 12:02:02;;;;;;;6.32;3.15;;;;;;;;;;4989874;28;20409;-86
2021/06/25 12:04:35;;;;;;;5.18;3.17;;;;;;;;;;4994437;28;20030;-88
2021/06/25 12:07:02;;;;;;;6.93;3.08;;;;;;;;;;4999220;28;20044;-84
2021/06/25 12:09:38;;;;;;;7.60;3.90;;;;;;;;;;4990925;28;20037;-83
2021/06/25 12:12:04;;;;;;;9.43;3.60;;;;;;;;;;5000788;28;20062;-82
2021/06/25 12:14:50;;;;;;;5.28;3.50;;;;;;;;;;4990779;28;20034;-82
2021/06/25 12:17:18;;;;;;;4.25;2.40;;;;;;;;;;4980452;28;20060;-82
2021/06/25 12:19:56;;;;;;;7.22;3.10;;;;;;;;;;4955270;28;20052;-83
2021/06/25 12:22:22;;;;;;;7.20;2.28;;;;;;;;;;4963455;28;20056;-82
2021/06/25 12:24:53;;;;;;;5.55;2.58;;;;;;;;;;4969660;28;20042;-83
2021/06/25 12:27:19;;;;;;;4.70;2.35;;;;;;;;;;4958091;28;20104;-84
2021/06/25 12:29:46;;;;;;;4.75;2.00;;;;;;;;;;5008162;28;20128;-82
2021/06/25 12:32:20;;;;;;;8.05;2.88;;;;;;;;;;5013411;28;20074;-80
2021/06/25 12:34:47;;;;;;;9.45;3.65;;;;;;;;;;4995750;28;20412;-82
2021/06/25 12:37:14;;;;;;;11.65;7.50;;;;;;;;;;4968259;28;20105;-82
2021/06/25 12:39:44;;;;;;;14.68;6.78;;;;;;;;;;4942766;28;20080;-83
2021/06/25 12:42:11;;;;;;;14.77;8.10;;;;;;;;;;4974044;28;20455;-81
2021/06/25 12:44:38;;;;;;;6.63;3.47;;;;;;;;;;4984369;28;20049;-82
2021/06/25 12:47:05;;;;;;;6.53;3.17;;;;;;;;;;4983374;28;20053;-81
2021/06/25 12:49:37;;;;;;;7.22;3.45;;;;;;;;;;4985056;28;20045;-82
2021/06/25 12:52:23;;;;;;;4.07;2.20;;;;;;;;;;5008047;28;20046;-80
2021/06/25 12:54:50;;;;;;;4.05;2.30;;;;;;;;;;5005817;28;20486;-79
2021/06/25 12:57:21;;;;;;;5.10;2.25;;;;;;;;;;5002438;28;20113;-79
2021/06/25 12:59:56;;;;;;;6.38;2.88;;;;;;;;;;5004408;28;20112;-80
2021/06/25 13:02:22;;;;;;;5.38;2.95;;;;;;;;;;4996406;28;20034;-81
2021/06/25 13:04:48;;;;;;;7.07;2.58;;;;;;;;;;4999489;28;20034;-91
2021/06/25 13:07:20;;;;;;;6.22;2.38;;;;;;;;;;5025404;28;20155;-91
2021/06/25 13:09:48;;;;;;;4.15;2.72;;;;;;;;;;4976758;28;20526;-79
2021/06/25 13:12:14;;;;;;;4.65;2.60;;;;;;;;;;4982977;28;20045;-81
2021/06/25 13:14:42;;;;;;;5.07;2.75;;;;;;;;;;4978174;28;20041;-79
2021/06/25 13:17:08;;;;;;;10.48;2.85;;;;;;;;;;4985522;28;20044;-81
2021/06/25 13:19:41;;;;;;;8.30;2.53;;;;;;;;;;4994904;28;20657;-81
2021/06/25 13:22:11;;;;;;;3.65;1.73;;;;;;;;;;4981607;28;20033;-82
2021/06/25 13:24:59;;;;;;;3.25;2.00;;;;;;;;;;4981640;28;20117;-79
2021/06/25 13:27:26;;;;;;;9.80;2.70;;;;;;;;;;4993911;28;20125;-80
2021/06/25 13:29:54;;;;;;;4.25;2.40;;;;;;;;;;4959310;28;20084;-80
2021/06/25 13:32:27;;;;;;;4.90;2.30;;;;;;;;;;4976658;28;20046;-80
2021/06/25 13:34:53;;;;;;;4.03;1.90;;;;;;;;;;5014185;28;20033;-80
2021/06/25 13:37:19;;;;;;;4.00;2.22;;;;;;;;;;4990500;28;20404;-80
2021/06/25 13:39:52;;;;;;;4.90;2.25;;;;;;;;;;5007688;28;20310;-79
2021/06/25 13:42:18;;;;;;;5.35;2.55;;;;;;;;;;5001706;28;20033;-81
2021/06/25 13:44:44;;;;;;;5.68;1.95;;;;;;;;;;4991908;28;20031;-80
2021/06/25 13:47:12;;;;;;;5.32;2.15;;;;;;;;;;4962902;28;20042;-80
2021/06/25 13:49:40;;;;;;;7.13;1.98;;;;;;;;;;4977393;28;20058;-80
2021/06/25 13:52:23;;;;;;;6.45;2.03;;;;;;;;;;4972711;28;20038;-80
2021/06/25 13:54:50;;;;;;;6.53;1.88;;;;;;;;;;5009864;28;20043;-81
2021/06/25 13:57:20;;;;;;;2.63;1.67;;;;;;;;;;5003642;28;20137;-80
2021/06/25 13:59:46;;;;;;;5.38;1.70;;;;;;;;;;5015119;28;20037;-80
2021/06/25 14:02:12;;;;;;;3.63;1.52;;;;;;;;;;5014602;28;20642;-80
2021/06/25 14:04:41;;;;;;;2.67;1.48;;;;;;;;;;5022410;28;20036;-82
2021/06/25 14:07:13;;;;;;;5.88;1.92;;;;;;;;;;5028842;28;20103;-80
2021/06/25 14:09:39;;;;;;;3.05;1.60;;;;;;;;;;5015498;28;20522;-80
2021/06/25 14:12:10;;;;;;;4.38;1.90;;;;;;;;;;5004086;28;20033;-81
2021/06/25 14:14:43;;;;;;;4.68;1.70;;;;;;;;;;4999929;28;25258;-81
2021/06/25 14:17:09;;;;;;;5.32;1.95;;;;;;;;;;4978543;28;20452;-81
2021/06/25 14:19:36;;;;;;;4.53;1.90;;;;;;;;;;5002290;28;20042;-82
2021/06/25 14:22:03;;;;;;;3.42;1.27;;;;;;;;;;5007570;28;20408;-81
2021/06/25 14:24:32;;;;;;;3.35;1.20;;;;;;;;;;5014762;28;20782;-80
2021/06/25 14:27:00;;;;;;;3.22;1.98;;;;;;;;;;5000334;28;20038;-80
2021/06/25 14:29:26;;;;;;;3.65;1.30;;;;;;;;;;5004853;28;20114;-80
2021/06/25 14:31:52;;;;;;;2.45;1.35;;;;;;;;;;5008021;28;20042;-81
2021/06/25 14:34:18;;;;;;;7.45;2.22;;;;;;;;;;4996914;28;20033;-81
2021/06/25 14:36:44;;;;;;;8.13;3.00;;;;;;;;;;5015117;28;20034;-82
2021/06/25 14:39:11;;;;;;;5.93;2.30;;;;;;;;;;5016923;28;20087;-81
2021/06/25 14:41:37;;;;;;;6.03;2.88;;;;;;;;;;4998600;28;20037;-80
2021/06/25 14:44:03;;;;;;;8.32;4.22;;;;;;;;;;4998383;28;20053;-80
2021/06/25 14:46:31;;;;;;;5.22;2.65;;;;;;;;;;5003134;28;20045;-80
2021/06/25 14:48:58;;;;;;;4.43;2.17;;;;;;;;;;5019308;28;20041;-82
2021/06/25 14:51:24;;;;;;;3.90;1.95;;;;;;;;;;4997563;28;20060;-82
2021/06/25 14:53:52;;;;;;;4.07;2.13;;;;;;;;;;5000062;28;20030;-81
2021/06/25 14:56:18;;;;;;;5.05;1.63;;;;;;;;;;5009545;28;20148;-81
2021/06/25 14:58:44;;;;;;;5.60;1.60;;;;;;;;;;5010094;28;20407;-80
2021/06/25 15:01:11;;;;;;;4.97;1.88;;;;;;;;;;5016592;28;20040;-81
2021/06/25 15:03:37;;;;;;;3.30;1.38;;;;;;;;;;4975291;28;21865;-81